sensor_id;sensor_type;location;lat;lon;timestamp;P1;durP1;ratioP1;P2;durP2;ratioP2
33740;SDS011;20065;48.380;10.892;2023-02-28T00:01:56;8.63;;;3.20;;
33740;SDS011;20065;48.380;10.892;2023-02-28T00:04:42;5.93;;;3.00;;
33740;SDS011;20065;48.380;10.892;2023-02-28T00:07:29;6.60;;;3.40;;
33740;SDS011;20065;48.380;10.892;2023-02-28T00:10:17;6.28;;;3.17;;
33740;SDS011;20065;48.380;10.892;2023-02-28T00:13:06;8.05;;;3.58;;
33740;SDS011;20065;48.380;10.892;2023-02-28T00:16:02;4.28;;;2.75;;
33740;SDS011;20065;48.380;10.892;2023-02-28T00:18:50;6.25;;;3.28;;
33740;SDS011;20065;48.380;10.892;2023-02-28T00:21:37;8.90;;;3.75;;
33740;SDS011;20065;48.380;10.892;2023-02-28T00:24:26;7.55;;;2.80;;
33740;SDS011;20065;48.380;10.892;2023-02-28T00:27:13;6.68;;;3.20;;
33740;SDS011;20065;48.380;10.892;2023-02-28T00:30:00;5.90;;;2.95;;
33740;SDS011;20065;48.380;10.892;2023-02-28T00:32:46;5.35;;;3.08;;
33740;SDS011;20065;48.380;10.892;2023-02-28T00:35:32;6.05;;;3.55;;
33740;SDS011;20065;48.380;10.892;2023-02-28T00:38:18;10.57;;;3.60;;
33740;SDS011;20065;48.380;10.892;2023-02-28T00:41:05;6.70;;;4.05;;
33740;SDS011;20065;48.380;10.892;2023-02-28T00:43:51;6.28;;;3.03;;
33740;SDS011;20065;48.380;10.892;2023-02-28T00:46:37;6.28;;;3.28;;
33740;SDS011;20065;48.380;10.892;2023-02-28T00:49:24;8.82;;;3.17;;
33740;SDS011;20065;48.380;10.892;2023-02-28T00:52:11;6.75;;;3.35;;
33740;SDS011;20065;48.380;10.892;2023-02-28T00:54:57;7.85;;;3.28;;
33740;SDS011;20065;48.380;10.892;2023-02-28T00:57:43;6.47;;;3.40;;
33740;SDS011;20065;48.380;10.892;2023-02-28T01:00:29;6.20;;;3.40;;
33740;SDS011;20065;48.380;10.892;2023-02-28T01:03:16;6.80;;;3.40;;
33740;SDS011;20065;48.380;10.892;2023-02-28T01:06:03;7.50;;;2.97;;
33740;SDS011;20065;48.380;10.892;2023-02-28T01:08:49;8.80;;;3.75;;
33740;SDS011;20065;48.380;10.892;2023-02-28T01:11:36;6.60;;;3.67;;
33740;SDS011;20065;48.380;10.892;2023-02-28T01:17:11;6.55;;;3.25;;
33740;SDS011;20065;48.380;10.892;2023-02-28T01:19:58;6.03;;;3.33;;
33740;SDS011;20065;48.380;10.892;2023-02-28T01:22:44;6.35;;;3.15;;
33740;SDS011;20065;48.380;10.892;2023-02-28T01:25:30;7.25;;;3.35;;
33740;SDS011;20065;48.380;10.892;2023-02-28T01:28:19;8.95;;;3.35;;
33740;SDS011;20065;48.380;10.892;2023-02-28T01:31:05;7.35;;;3.25;;
33740;SDS011;20065;48.380;10.892;2023-02-28T01:33:56;7.15;;;3.55;;
33740;SDS011;20065;48.380;10.892;2023-02-28T01:36:46;6.68;;;3.45;;
33740;SDS011;20065;48.380;10.892;2023-02-28T01:39:33;5.15;;;3.30;;
33740;SDS011;20065;48.380;10.892;2023-02-28T01:42:19;10.68;;;3.28;;
33740;SDS011;20065;48.380;10.892;2023-02-28T01:48:10;6.38;;;2.70;;
33740;SDS011;20065;48.380;10.892;2023-02-28T01:50:59;6.13;;;2.92;;
33740;SDS011;20065;48.380;10.892;2023-02-28T01:53:55;5.90;;;3.38;;
33740;SDS011;20065;48.380;10.892;2023-02-28T01:56:46;5.93;;;3.33;;
33740;SDS011;20065;48.380;10.892;2023-02-28T01:59:48;7.43;;;3.58;;
33740;SDS011;20065;48.380;10.892;2023-02-28T02:02:36;6.60;;;3.05;;
33740;SDS011;20065;48.380;10.892;2023-02-28T02:05:28;8.55;;;3.40;;
33740;SDS011;20065;48.380;10.892;2023-02-28T02:08:21;6.43;;;3.55;;
33740;SDS011;20065;48.380;10.892;2023-02-28T02:11:11;6.53;;;3.30;;
33740;SDS011;20065;48.380;10.892;2023-02-28T02:14:23;7.65;;;3.60;;
33740;SDS011;20065;48.380;10.892;2023-02-28T02:17:38;6.60;;;3.25;;
33740;SDS011;20065;48.380;10.892;2023-02-28T02:30:17;6.38;;;3.72;;
33740;SDS011;20065;48.380;10.892;2023-02-28T02:39:27;9.00;;;4.22;;
33740;SDS011;20065;48.380;10.892;2023-02-28T02:42:28;7.57;;;3.50;;
33740;SDS011;20065;48.380;10.892;2023-02-28T02:45:47;7.07;;;3.72;;
33740;SDS011;20065;48.380;10.892;2023-02-28T02:48:34;10.52;;;4.00;;
33740;SDS011;20065;48.380;10.892;2023-02-28T02:51:25;6.03;;;3.60;;
33740;SDS011;20065;48.380;10.892;2023-02-28T02:57:07;7.25;;;4.32;;
33740;SDS011;20065;48.380;10.892;2023-02-28T02:59:57;7.50;;;4.20;;
33740;SDS011;20065;48.380;10.892;2023-02-28T03:02:46;7.80;;;4.00;;
33740;SDS011;20065;48.380;10.892;2023-02-28T03:05:35;7.28;;;4.50;;
33740;SDS011;20065;48.380;10.892;2023-02-28T03:08:34;8.18;;;4.45;;
33740;SDS011;20065;48.380;10.892;2023-02-28T03:11:22;6.32;;;3.60;;
33740;SDS011;20065;48.380;10.892;2023-02-28T03:26:27;7.47;;;4.70;;
33740;SDS011;20065;48.380;10.892;2023-02-28T03:29:20;9.30;;;4.90;;
33740;SDS011;20065;48.380;10.892;2023-02-28T03:32:19;8.20;;;5.07;;
33740;SDS011;20065;48.380;10.892;2023-02-28T03:38:09;10.63;;;4.90;;
33740;SDS011;20065;48.380;10.892;2023-02-28T03:44:10;9.55;;;5.55;;
33740;SDS011;20065;48.380;10.892;2023-02-28T03:47:27;7.80;;;4.75;;
33740;SDS011;20065;48.380;10.892;2023-02-28T03:50:23;10.15;;;5.18;;
33740;SDS011;20065;48.380;10.892;2023-02-28T04:02:23;10.70;;;5.63;;
33740;SDS011;20065;48.380;10.892;2023-02-28T04:05:09;8.23;;;5.05;;
33740;SDS011;20065;48.380;10.892;2023-02-28T04:08:03;13.23;;;5.10;;
33740;SDS011;20065;48.380;10.892;2023-02-28T04:11:36;10.82;;;5.93;;
33740;SDS011;20065;48.380;10.892;2023-02-28T04:14:12;12.27;;;6.07;;
33740;SDS011;20065;48.380;10.892;2023-02-28T04:16:59;10.45;;;5.28;;
33740;SDS011;20065;48.380;10.892;2023-02-28T04:19:45;12.30;;;5.95;;
33740;SDS011;20065;48.380;10.892;2023-02-28T04:22:31;8.32;;;4.72;;
33740;SDS011;20065;48.380;10.892;2023-02-28T04:25:17;12.38;;;5.18;;
33740;SDS011;20065;48.380;10.892;2023-02-28T04:28:03;14.05;;;6.18;;
33740;SDS011;20065;48.380;10.892;2023-02-28T04:31:00;9.05;;;5.50;;
33740;SDS011;20065;48.380;10.892;2023-02-28T04:33:48;9.68;;;5.53;;
33740;SDS011;20065;48.380;10.892;2023-02-28T04:36:35;9.88;;;5.35;;
33740;SDS011;20065;48.380;10.892;2023-02-28T04:39:22;11.98;;;5.85;;
33740;SDS011;20065;48.380;10.892;2023-02-28T04:42:09;10.13;;;5.35;;
33740;SDS011;20065;48.380;10.892;2023-02-28T04:44:56;12.85;;;6.07;;
33740;SDS011;20065;48.380;10.892;2023-02-28T04:47:42;11.57;;;5.70;;
33740;SDS011;20065;48.380;10.892;2023-02-28T04:50:28;10.00;;;5.50;;
33740;SDS011;20065;48.380;10.892;2023-02-28T04:53:14;10.50;;;5.10;;
33740;SDS011;20065;48.380;10.892;2023-02-28T04:56:01;10.93;;;5.43;;
33740;SDS011;20065;48.380;10.892;2023-02-28T04:58:47;8.55;;;4.80;;
33740;SDS011;20065;48.380;10.892;2023-02-28T05:01:34;8.82;;;5.90;;
33740;SDS011;20065;48.380;10.892;2023-02-28T05:04:21;11.00;;;5.60;;
33740;SDS011;20065;48.380;10.892;2023-02-28T05:07:07;9.52;;;6.13;;
33740;SDS011;20065;48.380;10.892;2023-02-28T05:09:55;13.27;;;5.88;;
33740;SDS011;20065;48.380;10.892;2023-02-28T05:12:41;9.57;;;5.53;;
33740;SDS011;20065;48.380;10.892;2023-02-28T05:15:27;7.93;;;4.63;;
33740;SDS011;20065;48.380;10.892;2023-02-28T05:18:13;10.52;;;5.40;;
33740;SDS011;20065;48.380;10.892;2023-02-28T05:20:59;11.73;;;6.13;;
33740;SDS011;20065;48.380;10.892;2023-02-28T05:23:47;11.68;;;6.20;;
33740;SDS011;20065;48.380;10.892;2023-02-28T05:26:34;13.07;;;6.90;;
33740;SDS011;20065;48.380;10.892;2023-02-28T05:29:21;9.85;;;5.90;;
33740;SDS011;20065;48.380;10.892;2023-02-28T05:32:11;9.18;;;5.65;;
33740;SDS011;20065;48.380;10.892;2023-02-28T05:34:58;11.15;;;5.53;;
33740;SDS011;20065;48.380;10.892;2023-02-28T05:37:44;9.45;;;6.00;;
33740;SDS011;20065;48.380;10.892;2023-02-28T05:40:30;9.90;;;6.03;;
33740;SDS011;20065;48.380;10.892;2023-02-28T05:43:16;10.80;;;5.78;;
33740;SDS011;20065;48.380;10.892;2023-02-28T05:46:03;11.57;;;7.00;;
33740;SDS011;20065;48.380;10.892;2023-02-28T05:48:53;10.63;;;6.55;;
33740;SDS011;20065;48.380;10.892;2023-02-28T05:51:41;10.63;;;6.10;;
33740;SDS011;20065;48.380;10.892;2023-02-28T05:54:27;9.30;;;6.32;;
33740;SDS011;20065;48.380;10.892;2023-02-28T05:57:13;11.77;;;6.68;;
33740;SDS011;20065;48.380;10.892;2023-02-28T05:59:59;11.57;;;5.70;;
33740;SDS011;20065;48.380;10.892;2023-02-28T06:02:45;14.48;;;7.65;;
33740;SDS011;20065;48.380;10.892;2023-02-28T06:05:31;10.63;;;6.70;;
33740;SDS011;20065;48.380;10.892;2023-02-28T06:08:18;17.48;;;8.85;;
33740;SDS011;20065;48.380;10.892;2023-02-28T06:11:05;14.45;;;7.78;;
33740;SDS011;20065;48.380;10.892;2023-02-28T06:13:55;13.82;;;7.63;;
33740;SDS011;20065;48.380;10.892;2023-02-28T06:16:43;12.68;;;7.90;;
33740;SDS011;20065;48.380;10.892;2023-02-28T06:19:29;12.95;;;7.43;;
33740;SDS011;20065;48.380;10.892;2023-02-28T06:22:16;14.00;;;7.57;;
33740;SDS011;20065;48.380;10.892;2023-02-28T06:25:03;11.88;;;7.65;;
33740;SDS011;20065;48.380;10.892;2023-02-28T06:27:50;14.35;;;7.05;;
33740;SDS011;20065;48.380;10.892;2023-02-28T06:30:36;13.30;;;7.78;;
33740;SDS011;20065;48.380;10.892;2023-02-28T06:33:23;12.90;;;7.63;;
33740;SDS011;20065;48.380;10.892;2023-02-28T06:36:10;15.90;;;8.68;;
33740;SDS011;20065;48.380;10.892;2023-02-28T06:38:58;12.13;;;7.40;;
33740;SDS011;20065;48.380;10.892;2023-02-28T06:41:44;11.68;;;7.22;;
33740;SDS011;20065;48.380;10.892;2023-02-28T06:44:31;13.85;;;7.47;;
33740;SDS011;20065;48.380;10.892;2023-02-28T06:47:20;11.60;;;7.38;;
33740;SDS011;20065;48.380;10.892;2023-02-28T06:50:09;12.70;;;6.95;;
33740;SDS011;20065;48.380;10.892;2023-02-28T06:52:57;11.18;;;7.20;;
33740;SDS011;20065;48.380;10.892;2023-02-28T06:55:43;11.00;;;6.75;;
33740;SDS011;20065;48.380;10.892;2023-02-28T06:58:29;13.93;;;7.50;;
33740;SDS011;20065;48.380;10.892;2023-02-28T07:01:16;15.27;;;8.00;;
33740;SDS011;20065;48.380;10.892;2023-02-28T07:04:05;14.85;;;7.63;;
33740;SDS011;20065;48.380;10.892;2023-02-28T07:06:51;13.00;;;7.05;;
33740;SDS011;20065;48.380;10.892;2023-02-28T07:09:37;12.80;;;7.57;;
33740;SDS011;20065;48.380;10.892;2023-02-28T07:12:23;12.93;;;7.40;;
33740;SDS011;20065;48.380;10.892;2023-02-28T07:15:09;16.67;;;7.82;;
33740;SDS011;20065;48.380;10.892;2023-02-28T07:17:56;12.65;;;8.05;;
33740;SDS011;20065;48.380;10.892;2023-02-28T07:20:42;13.07;;;7.65;;
33740;SDS011;20065;48.380;10.892;2023-02-28T07:23:28;12.43;;;7.43;;
33740;SDS011;20065;48.380;10.892;2023-02-28T07:26:16;12.70;;;7.30;;
33740;SDS011;20065;48.380;10.892;2023-02-28T07:29:04;15.27;;;7.40;;
33740;SDS011;20065;48.380;10.892;2023-02-28T07:31:50;11.88;;;7.20;;
33740;SDS011;20065;48.380;10.892;2023-02-28T07:34:38;11.73;;;7.40;;
33740;SDS011;20065;48.380;10.892;2023-02-28T07:37:24;13.73;;;7.78;;
33740;SDS011;20065;48.380;10.892;2023-02-28T07:40:11;15.85;;;8.93;;
33740;SDS011;20065;48.380;10.892;2023-02-28T07:42:58;12.60;;;7.20;;
33740;SDS011;20065;48.380;10.892;2023-02-28T07:45:45;15.38;;;7.78;;
33740;SDS011;20065;48.380;10.892;2023-02-28T07:48:32;14.30;;;7.93;;
33740;SDS011;20065;48.380;10.892;2023-02-28T07:51:18;14.88;;;7.47;;
33740;SDS011;20065;48.380;10.892;2023-02-28T07:54:04;13.63;;;8.30;;
33740;SDS011;20065;48.380;10.892;2023-02-28T07:56:51;23.40;;;8.18;;
33740;SDS011;20065;48.380;10.892;2023-02-28T07:59:37;15.95;;;7.13;;
33740;SDS011;20065;48.380;10.892;2023-02-28T08:02:23;13.20;;;7.43;;
33740;SDS011;20065;48.380;10.892;2023-02-28T08:05:09;14.05;;;8.07;;
33740;SDS011;20065;48.380;10.892;2023-02-28T08:07:56;15.45;;;8.07;;
33740;SDS011;20065;48.380;10.892;2023-02-28T08:10:42;14.95;;;8.02;;
33740;SDS011;20065;48.380;10.892;2023-02-28T08:13:29;15.25;;;8.32;;
33740;SDS011;20065;48.380;10.892;2023-02-28T08:16:16;15.32;;;9.13;;
33740;SDS011;20065;48.380;10.892;2023-02-28T08:19:07;16.30;;;8.35;;
33740;SDS011;20065;48.380;10.892;2023-02-28T08:21:53;12.98;;;7.15;;
33740;SDS011;20065;48.380;10.892;2023-02-28T08:24:41;15.18;;;8.63;;
33740;SDS011;20065;48.380;10.892;2023-02-28T08:27:28;19.00;;;8.73;;
33740;SDS011;20065;48.380;10.892;2023-02-28T08:30:14;19.00;;;9.27;;
33740;SDS011;20065;48.380;10.892;2023-02-28T08:33:01;15.50;;;8.50;;
33740;SDS011;20065;48.380;10.892;2023-02-28T08:35:47;16.10;;;9.25;;
33740;SDS011;20065;48.380;10.892;2023-02-28T08:38:33;18.45;;;8.65;;
33740;SDS011;20065;48.380;10.892;2023-02-28T08:41:20;20.88;;;9.07;;
33740;SDS011;20065;48.380;10.892;2023-02-28T08:44:06;18.02;;;9.77;;
33740;SDS011;20065;48.380;10.892;2023-02-28T08:46:53;16.65;;;9.63;;
33740;SDS011;20065;48.380;10.892;2023-02-28T08:49:39;14.25;;;8.18;;
33740;SDS011;20065;48.380;10.892;2023-02-28T08:52:25;19.67;;;9.40;;
33740;SDS011;20065;48.380;10.892;2023-02-28T08:55:11;16.10;;;8.82;;
33740;SDS011;20065;48.380;10.892;2023-02-28T08:57:57;13.50;;;8.75;;
33740;SDS011;20065;48.380;10.892;2023-02-28T09:00:44;14.63;;;9.32;;
33740;SDS011;20065;48.380;10.892;2023-02-28T09:03:30;14.82;;;9.02;;
33740;SDS011;20065;48.380;10.892;2023-02-28T09:06:17;15.25;;;9.50;;
33740;SDS011;20065;48.380;10.892;2023-02-28T09:09:04;15.32;;;8.98;;
33740;SDS011;20065;48.380;10.892;2023-02-28T09:11:54;16.45;;;9.80;;
33740;SDS011;20065;48.380;10.892;2023-02-28T09:14:41;18.00;;;10.23;;
33740;SDS011;20065;48.380;10.892;2023-02-28T09:17:27;13.85;;;9.50;;
33740;SDS011;20065;48.380;10.892;2023-02-28T09:20:13;17.02;;;10.13;;
33740;SDS011;20065;48.380;10.892;2023-02-28T09:23:00;17.75;;;8.88;;
33740;SDS011;20065;48.380;10.892;2023-02-28T09:25:47;17.23;;;9.75;;
33740;SDS011;20065;48.380;10.892;2023-02-28T09:28:34;16.42;;;10.05;;
33740;SDS011;20065;48.380;10.892;2023-02-28T09:31:23;16.08;;;9.10;;
33740;SDS011;20065;48.380;10.892;2023-02-28T09:34:10;23.02;;;10.25;;
33740;SDS011;20065;48.380;10.892;2023-02-28T09:36:56;15.30;;;9.23;;
33740;SDS011;20065;48.380;10.892;2023-02-28T09:39:43;14.77;;;9.48;;
33740;SDS011;20065;48.380;10.892;2023-02-28T09:42:31;16.60;;;9.90;;
33740;SDS011;20065;48.380;10.892;2023-02-28T09:45:24;18.20;;;10.45;;
33740;SDS011;20065;48.380;10.892;2023-02-28T09:48:25;14.07;;;9.15;;
33740;SDS011;20065;48.380;10.892;2023-02-28T09:51:29;14.77;;;9.38;;
33740;SDS011;20065;48.380;10.892;2023-02-28T09:54:26;26.63;;;16.77;;
33740;SDS011;20065;48.380;10.892;2023-02-28T10:09:18;16.50;;;9.73;;
33740;SDS011;20065;48.380;10.892;2023-02-28T10:12:09;15.25;;;10.38;;
33740;SDS011;20065;48.380;10.892;2023-02-28T10:14:58;14.05;;;8.45;;
33740;SDS011;20065;48.380;10.892;2023-02-28T10:17:47;15.15;;;9.38;;
33740;SDS011;20065;48.380;10.892;2023-02-28T10:20:38;19.35;;;10.80;;
33740;SDS011;20065;48.380;10.892;2023-02-28T10:23:28;15.05;;;9.10;;
33740;SDS011;20065;48.380;10.892;2023-02-28T10:26:20;15.98;;;10.18;;
33740;SDS011;20065;48.380;10.892;2023-02-28T10:29:07;17.25;;;10.57;;
33740;SDS011;20065;48.380;10.892;2023-02-28T10:31:54;22.00;;;11.20;;
33740;SDS011;20065;48.380;10.892;2023-02-28T10:34:40;13.48;;;9.20;;
33740;SDS011;20065;48.380;10.892;2023-02-28T10:37:27;18.05;;;10.40;;
33740;SDS011;20065;48.380;10.892;2023-02-28T10:43:16;14.52;;;9.68;;
33740;SDS011;20065;48.380;10.892;2023-02-28T10:49:02;13.07;;;8.70;;
33740;SDS011;20065;48.380;10.892;2023-02-28T10:51:54;12.23;;;9.05;;
33740;SDS011;20065;48.380;10.892;2023-02-28T10:54:42;13.40;;;8.35;;
33740;SDS011;20065;48.380;10.892;2023-02-28T10:57:28;12.75;;;8.90;;
33740;SDS011;20065;48.380;10.892;2023-02-28T11:00:18;13.90;;;9.52;;
33740;SDS011;20065;48.380;10.892;2023-02-28T11:06:30;12.35;;;8.73;;
33740;SDS011;20065;48.380;10.892;2023-02-28T11:09:23;12.57;;;8.45;;
33740;SDS011;20065;48.380;10.892;2023-02-28T11:12:33;15.20;;;9.05;;
33740;SDS011;20065;48.380;10.892;2023-02-28T11:15:22;14.23;;;8.85;;
33740;SDS011;20065;48.380;10.892;2023-02-28T11:20:58;12.70;;;8.90;;
33740;SDS011;20065;48.380;10.892;2023-02-28T11:23:46;13.35;;;9.65;;
33740;SDS011;20065;48.380;10.892;2023-02-28T11:26:35;14.30;;;9.75;;
33740;SDS011;20065;48.380;10.892;2023-02-28T11:29:34;14.52;;;8.48;;
33740;SDS011;20065;48.380;10.892;2023-02-28T11:32:32;13.10;;;9.40;;
33740;SDS011;20065;48.380;10.892;2023-02-28T11:35:21;13.63;;;9.82;;
33740;SDS011;20065;48.380;10.892;2023-02-28T11:38:09;13.90;;;9.40;;
33740;SDS011;20065;48.380;10.892;2023-02-28T11:41:16;14.30;;;9.35;;
33740;SDS011;20065;48.380;10.892;2023-02-28T11:44:28;15.75;;;10.30;;
33740;SDS011;20065;48.380;10.892;2023-02-28T11:47:41;21.65;;;13.02;;
33740;SDS011;20065;48.380;10.892;2023-02-28T11:53:49;13.15;;;9.80;;
33740;SDS011;20065;48.380;10.892;2023-02-28T11:56:44;18.67;;;10.73;;
33740;SDS011;20065;48.380;10.892;2023-02-28T12:03:44;17.20;;;9.77;;
33740;SDS011;20065;48.380;10.892;2023-02-28T12:06:22;13.85;;;9.80;;
33740;SDS011;20065;48.380;10.892;2023-02-28T12:09:29;18.60;;;10.45;;
33740;SDS011;20065;48.380;10.892;2023-02-28T12:27:40;12.90;;;9.52;;
33740;SDS011;20065;48.380;10.892;2023-02-28T12:30:31;11.60;;;8.38;;
33740;SDS011;20065;48.380;10.892;2023-02-28T12:33:20;14.75;;;9.65;;
33740;SDS011;20065;48.380;10.892;2023-02-28T12:36:10;15.10;;;10.00;;
33740;SDS011;20065;48.380;10.892;2023-02-28T12:41:59;17.13;;;11.02;;
33740;SDS011;20065;48.380;10.892;2023-02-28T12:44:54;20.15;;;9.95;;
33740;SDS011;20065;48.380;10.892;2023-02-28T12:47:45;13.20;;;8.60;;
33740;SDS011;20065;48.380;10.892;2023-02-28T12:50:36;13.50;;;8.68;;
33740;SDS011;20065;48.380;10.892;2023-02-28T12:53:26;11.73;;;8.52;;
33740;SDS011;20065;48.380;10.892;2023-02-28T12:56:43;12.52;;;9.25;;
33740;SDS011;20065;48.380;10.892;2023-02-28T12:59:41;17.08;;;9.45;;
33740;SDS011;20065;48.380;10.892;2023-02-28T13:03:36;14.45;;;9.23;;
33740;SDS011;20065;48.380;10.892;2023-02-28T13:06:05;13.70;;;9.55;;
33740;SDS011;20065;48.380;10.892;2023-02-28T13:09:18;14.52;;;9.25;;
33740;SDS011;20065;48.380;10.892;2023-02-28T13:12:13;14.27;;;9.50;;
33740;SDS011;20065;48.380;10.892;2023-02-28T13:18:26;12.80;;;8.70;;
33740;SDS011;20065;48.380;10.892;2023-02-28T13:21:24;16.75;;;9.55;;
33740;SDS011;20065;48.380;10.892;2023-02-28T13:27:35;15.57;;;9.38;;
33740;SDS011;20065;48.380;10.892;2023-02-28T13:33:36;14.25;;;9.43;;
33740;SDS011;20065;48.380;10.892;2023-02-28T13:36:43;14.60;;;9.77;;
33740;SDS011;20065;48.380;10.892;2023-02-28T13:45:21;15.40;;;9.95;;
33740;SDS011;20065;48.380;10.892;2023-02-28T13:48:17;17.42;;;11.02;;
33740;SDS011;20065;48.380;10.892;2023-02-28T13:51:26;15.70;;;9.60;;
33740;SDS011;20065;48.380;10.892;2023-02-28T13:54:33;13.65;;;8.48;;
33740;SDS011;20065;48.380;10.892;2023-02-28T14:03:57;20.60;;;11.55;;
33740;SDS011;20065;48.380;10.892;2023-02-28T14:06:50;14.57;;;10.65;;
33740;SDS011;20065;48.380;10.892;2023-02-28T14:09:40;15.10;;;10.75;;
33740;SDS011;20065;48.380;10.892;2023-02-28T14:15:41;14.63;;;8.60;;
33740;SDS011;20065;48.380;10.892;2023-02-28T14:18:34;14.13;;;8.85;;
33740;SDS011;20065;48.380;10.892;2023-02-28T14:21:27;15.63;;;9.68;;
33740;SDS011;20065;48.380;10.892;2023-02-28T14:36:35;13.75;;;9.43;;
33740;SDS011;20065;48.380;10.892;2023-02-28T14:39:22;15.95;;;9.30;;
33740;SDS011;20065;48.380;10.892;2023-02-28T14:42:30;16.38;;;8.70;;
33740;SDS011;20065;48.380;10.892;2023-02-28T14:45:19;15.05;;;9.18;;
33740;SDS011;20065;48.380;10.892;2023-02-28T14:48:08;14.15;;;8.90;;
33740;SDS011;20065;48.380;10.892;2023-02-28T14:50:59;14.98;;;10.10;;
33740;SDS011;20065;48.380;10.892;2023-02-28T14:53:48;13.07;;;8.73;;
33740;SDS011;20065;48.380;10.892;2023-02-28T14:56:37;13.10;;;8.50;;
33740;SDS011;20065;48.380;10.892;2023-02-28T14:59:35;12.93;;;8.50;;
33740;SDS011;20065;48.380;10.892;2023-02-28T15:02:23;13.52;;;8.93;;
33740;SDS011;20065;48.380;10.892;2023-02-28T15:13:51;11.05;;;8.32;;
33740;SDS011;20065;48.380;10.892;2023-02-28T15:16:41;14.35;;;8.48;;
33740;SDS011;20065;48.380;10.892;2023-02-28T15:19:40;12.85;;;8.95;;
33740;SDS011;20065;48.380;10.892;2023-02-28T15:22:35;13.45;;;9.27;;
33740;SDS011;20065;48.380;10.892;2023-02-28T15:25:23;14.05;;;8.98;;
33740;SDS011;20065;48.380;10.892;2023-02-28T15:28:15;13.45;;;9.55;;
33740;SDS011;20065;48.380;10.892;2023-02-28T15:31:16;15.02;;;9.95;;
33740;SDS011;20065;48.380;10.892;2023-02-28T15:34:28;14.82;;;9.00;;
33740;SDS011;20065;48.380;10.892;2023-02-28T15:40:27;14.70;;;10.50;;
33740;SDS011;20065;48.380;10.892;2023-02-28T15:43:17;17.35;;;9.70;;
33740;SDS011;20065;48.380;10.892;2023-02-28T15:46:23;17.40;;;9.35;;
33740;SDS011;20065;48.380;10.892;2023-02-28T15:49:16;14.48;;;9.10;;
33740;SDS011;20065;48.380;10.892;2023-02-28T15:52:09;16.02;;;9.95;;
33740;SDS011;20065;48.380;10.892;2023-02-28T15:55:11;18.10;;;9.20;;
33740;SDS011;20065;48.380;10.892;2023-02-28T15:58:00;15.55;;;9.35;;
33740;SDS011;20065;48.380;10.892;2023-02-28T16:00:59;17.27;;;9.20;;
33740;SDS011;20065;48.380;10.892;2023-02-28T16:03:50;15.30;;;9.20;;
33740;SDS011;20065;48.380;10.892;2023-02-28T16:06:44;13.55;;;9.15;;
33740;SDS011;20065;48.380;10.892;2023-02-28T16:09:31;15.13;;;9.85;;
33740;SDS011;20065;48.380;10.892;2023-02-28T16:12:18;16.33;;;10.60;;
33740;SDS011;20065;48.380;10.892;2023-02-28T16:15:18;17.77;;;10.65;;
33740;SDS011;20065;48.380;10.892;2023-02-28T16:18:15;15.82;;;10.43;;
33740;SDS011;20065;48.380;10.892;2023-02-28T16:42:23;16.90;;;10.30;;
33740;SDS011;20065;48.380;10.892;2023-02-28T16:45:20;20.00;;;11.57;;
33740;SDS011;20065;48.380;10.892;2023-02-28T16:48:13;18.10;;;10.00;;
33740;SDS011;20065;48.380;10.892;2023-02-28T16:51:00;17.58;;;11.85;;
33740;SDS011;20065;48.380;10.892;2023-02-28T16:53:49;16.08;;;9.82;;
33740;SDS011;20065;48.380;10.892;2023-02-28T16:56:35;17.23;;;10.77;;
33740;SDS011;20065;48.380;10.892;2023-02-28T16:59:24;18.15;;;11.50;;
33740;SDS011;20065;48.380;10.892;2023-02-28T17:02:14;17.35;;;10.65;;
33740;SDS011;20065;48.380;10.892;2023-02-28T17:05:02;19.08;;;11.88;;
33740;SDS011;20065;48.380;10.892;2023-02-28T17:07:48;23.75;;;11.85;;
33740;SDS011;20065;48.380;10.892;2023-02-28T17:10:35;23.80;;;12.40;;
33740;SDS011;20065;48.380;10.892;2023-02-28T17:13:22;17.70;;;11.73;;
33740;SDS011;20065;48.380;10.892;2023-02-28T17:16:12;15.00;;;10.60;;
33740;SDS011;20065;48.380;10.892;2023-02-28T17:19:15;16.17;;;10.98;;
33740;SDS011;20065;48.380;10.892;2023-02-28T17:22:02;16.98;;;10.90;;
33740;SDS011;20065;48.380;10.892;2023-02-28T17:24:48;19.05;;;12.60;;
33740;SDS011;20065;48.380;10.892;2023-02-28T17:27:34;20.25;;;12.20;;
33740;SDS011;20065;48.380;10.892;2023-02-28T17:30:25;20.67;;;11.93;;
33740;SDS011;20065;48.380;10.892;2023-02-28T17:33:15;19.77;;;12.80;;
33740;SDS011;20065;48.380;10.892;2023-02-28T17:36:01;18.17;;;11.35;;
33740;SDS011;20065;48.380;10.892;2023-02-28T17:38:47;17.38;;;10.38;;
33740;SDS011;20065;48.380;10.892;2023-02-28T17:41:34;21.02;;;12.80;;
33740;SDS011;20065;48.380;10.892;2023-02-28T17:44:20;19.20;;;12.52;;
33740;SDS011;20065;48.380;10.892;2023-02-28T17:47:11;19.95;;;13.20;;
33740;SDS011;20065;48.380;10.892;2023-02-28T17:49:58;22.60;;;14.20;;
33740;SDS011;20065;48.380;10.892;2023-02-28T17:52:44;20.95;;;14.10;;
33740;SDS011;20065;48.380;10.892;2023-02-28T17:55:30;22.20;;;12.93;;
33740;SDS011;20065;48.380;10.892;2023-02-28T17:58:16;21.42;;;13.60;;
33740;SDS011;20065;48.380;10.892;2023-02-28T18:01:04;18.10;;;11.70;;
33740;SDS011;20065;48.380;10.892;2023-02-28T18:03:50;23.23;;;12.88;;
33740;SDS011;20065;48.380;10.892;2023-02-28T18:06:40;19.50;;;12.25;;
33740;SDS011;20065;48.380;10.892;2023-02-28T18:09:35;20.38;;;12.40;;
33740;SDS011;20065;48.380;10.892;2023-02-28T18:15:10;19.60;;;11.95;;
33740;SDS011;20065;48.380;10.892;2023-02-28T18:17:57;17.73;;;11.13;;
33740;SDS011;20065;48.380;10.892;2023-02-28T18:20:43;19.95;;;12.63;;
33740;SDS011;20065;48.380;10.892;2023-02-28T18:23:29;19.25;;;11.30;;
33740;SDS011;20065;48.380;10.892;2023-02-28T18:26:15;22.02;;;13.02;;
33740;SDS011;20065;48.380;10.892;2023-02-28T18:29:03;20.40;;;12.90;;
33740;SDS011;20065;48.380;10.892;2023-02-28T18:31:50;22.65;;;11.98;;
33740;SDS011;20065;48.380;10.892;2023-02-28T18:34:37;20.25;;;10.73;;
33740;SDS011;20065;48.380;10.892;2023-02-28T18:37:23;20.23;;;11.18;;
33740;SDS011;20065;48.380;10.892;2023-02-28T18:40:09;19.73;;;11.18;;
33740;SDS011;20065;48.380;10.892;2023-02-28T18:42:55;18.65;;;11.70;;
33740;SDS011;20065;48.380;10.892;2023-02-28T18:45:42;22.30;;;13.02;;
33740;SDS011;20065;48.380;10.892;2023-02-28T18:48:28;19.88;;;12.80;;
33740;SDS011;20065;48.380;10.892;2023-02-28T18:51:15;24.77;;;13.98;;
33740;SDS011;20065;48.380;10.892;2023-02-28T18:54:03;21.35;;;11.32;;
33740;SDS011;20065;48.380;10.892;2023-02-28T18:56:49;20.25;;;11.20;;
33740;SDS011;20065;48.380;10.892;2023-02-28T18:59:35;18.63;;;10.70;;
33740;SDS011;20065;48.380;10.892;2023-02-28T19:02:24;18.90;;;11.68;;
33740;SDS011;20065;48.380;10.892;2023-02-28T19:05:13;22.80;;;12.18;;
33740;SDS011;20065;48.380;10.892;2023-02-28T19:08:00;18.23;;;11.60;;
33740;SDS011;20065;48.380;10.892;2023-02-28T19:10:46;20.27;;;11.18;;
33740;SDS011;20065;48.380;10.892;2023-02-28T19:13:36;18.70;;;11.43;;
33740;SDS011;20065;48.380;10.892;2023-02-28T19:16:22;18.88;;;10.40;;
33740;SDS011;20065;48.380;10.892;2023-02-28T19:19:09;17.65;;;11.30;;
33740;SDS011;20065;48.380;10.892;2023-02-28T19:21:55;20.83;;;12.20;;
33740;SDS011;20065;48.380;10.892;2023-02-28T19:24:41;19.17;;;11.38;;
33740;SDS011;20065;48.380;10.892;2023-02-28T19:27:27;19.77;;;12.00;;
33740;SDS011;20065;48.380;10.892;2023-02-28T19:30:13;22.88;;;11.82;;